createdAt,value
2019-04-03T00:00:57.354Z,48.50
2019-04-03T00:04:02.697Z,48.70
2019-04-03T00:07:07.820Z,48.90
2019-04-03T00:10:12.209Z,49.00
2019-04-03T00:13:16.606Z,49.00
2019-04-03T00:16:21.249Z,49.10
2019-04-03T00:19:25.544Z,49.20
2019-04-03T00:22:30.044Z,49.30
2019-04-03T00:25:36.045Z,49.30
2019-04-03T00:28:40.276Z,49.50
2019-04-03T00:31:44.542Z,49.40
2019-04-03T00:34:48.943Z,49.50
2019-04-03T00:37:53.885Z,49.60
2019-04-03T00:40:58.379Z,49.70
2019-04-03T00:44:03.322Z,49.70
2019-04-03T00:47:07.684Z,49.60
2019-04-03T00:50:12.106Z,49.70
2019-04-03T00:53:16.411Z,49.90
2019-04-03T00:56:20.746Z,50.00
2019-04-03T00:59:26.383Z,50.00
2019-04-03T01:02:31.138Z,50.10
2019-04-03T01:05:35.530Z,50.10
2019-04-03T01:08:39.838Z,50.20
2019-04-03T01:11:44.588Z,50.20
2019-04-03T01:14:49.324Z,50.20
2019-04-03T01:17:54.036Z,50.20
2019-04-03T01:20:58.745Z,50.20
2019-04-03T01:24:03.072Z,50.10
2019-04-03T01:27:07.547Z,50.20
2019-04-03T01:30:14.020Z,50.20
2019-04-03T01:33:18.240Z,50.50
2019-04-03T01:36:22.930Z,50.50
2019-04-03T01:39:27.365Z,50.80
2019-04-03T01:42:32.084Z,51.30
2019-04-03T01:45:36.411Z,51.30
2019-04-03T01:48:41.259Z,51.30
2019-04-03T01:51:45.624Z,51.40
2019-04-03T01:54:50.182Z,51.50
2019-04-03T01:57:54.516Z,51.40
2019-04-03T02:00:59.023Z,51.40
2019-04-03T02:04:03.404Z,51.50
2019-04-03T02:07:08.043Z,51.70
2019-04-03T02:10:17.840Z,51.90
2019-04-03T02:13:22.599Z,51.50
2019-04-03T02:16:27.493Z,51.40
2019-04-03T02:19:31.842Z,51.40
2019-04-03T02:22:36.196Z,51.30
2019-04-03T02:25:40.567Z,51.30
2019-04-03T02:28:45.521Z,51.30
2019-04-03T02:31:52.715Z,51.30
2019-04-03T02:34:55.892Z,51.30
2019-04-03T02:38:00.588Z,51.90
2019-04-03T02:41:05.534Z,51.20
2019-04-03T02:44:10.198Z,51.20
2019-04-03T02:47:15.204Z,51.20
2019-04-03T02:50:25.521Z,51.30
2019-04-03T02:53:31.329Z,51.20
2019-04-03T02:56:39.667Z,51.30
2019-04-03T02:59:44.375Z,50.90
2019-04-03T03:02:48.878Z,51.30
2019-04-03T03:05:53.242Z,51.30
2019-04-03T03:08:58.562Z,51.20
2019-04-03T03:12:03.868Z,51.40
2019-04-03T03:15:11.193Z,51.40
2019-04-03T03:18:14.765Z,51.50
2019-04-03T03:21:20.508Z,51.50
2019-04-03T03:24:28.398Z,51.40
2019-04-03T03:27:31.165Z,51.80
2019-04-03T03:30:45.506Z,51.50
2019-04-03T03:33:43.595Z,51.50
2019-04-03T03:36:48.997Z,51.70
2019-04-03T03:39:53.797Z,51.60
2019-04-03T03:43:05.123Z,51.40
2019-04-03T03:46:11.381Z,51.40
2019-04-03T03:49:17.817Z,51.50
2019-04-03T03:52:22.324Z,51.50
2019-04-03T03:55:26.979Z,51.50
2019-04-03T03:58:31.603Z,51.50
2019-04-03T04:01:36.154Z,51.50
2019-04-03T04:04:41.275Z,51.40
2019-04-03T04:07:45.822Z,51.50
2019-04-03T04:10:52.299Z,51.40
2019-04-03T04:13:56.815Z,51.40
2019-04-03T04:17:01.830Z,51.40
2019-04-03T04:20:07.456Z,51.30
2019-04-03T04:23:12.071Z,51.40
2019-04-03T04:26:17.069Z,51.40
2019-04-03T04:29:24.231Z,51.50
2019-04-03T04:32:28.555Z,51.50
2019-04-03T04:35:32.884Z,51.60
2019-04-03T04:38:37.456Z,51.70
2019-04-03T04:41:42.551Z,51.80
2019-04-03T04:44:47.314Z,51.90
2019-04-03T04:47:51.615Z,52.10
2019-04-03T04:50:56.167Z,52.10
2019-04-03T04:54:01.458Z,52.20
2019-04-03T04:57:08.265Z,52.30
2019-04-03T05:00:15.114Z,52.30
2019-04-03T05:03:21.132Z,52.30
2019-04-03T05:06:28.606Z,52.30
2019-04-03T05:09:34.348Z,52.40
2019-04-03T05:12:45.312Z,52.50
2019-04-03T05:15:49.643Z,52.30
2019-04-03T05:18:54.029Z,52.60
2019-04-03T05:21:58.334Z,52.50
2019-04-03T05:25:02.848Z,52.60
2019-04-03T05:28:07.356Z,52.60
2019-04-03T05:31:12.579Z,52.70
2019-04-03T05:34:17.234Z,52.70
2019-04-03T05:37:21.551Z,52.70
2019-04-03T05:40:26.565Z,52.70
2019-04-03T05:43:31.512Z,52.70
2019-04-03T05:46:37.620Z,52.80
2019-04-03T05:49:42.394Z,52.80
2019-04-03T05:52:46.984Z,52.70
2019-04-03T05:55:51.413Z,52.70
2019-04-03T05:59:03.702Z,52.70
2019-04-03T06:02:15.083Z,52.40
2019-04-03T06:05:14.846Z,52.70
2019-04-03T06:08:19.958Z,52.60
2019-04-03T06:11:25.021Z,52.50
2019-04-03T06:14:29.714Z,52.30
2019-04-03T06:17:34.054Z,52.20
2019-04-03T06:20:38.572Z,52.20
2019-04-03T06:23:42.988Z,52.10
2019-04-03T06:26:47.714Z,51.90
2019-04-03T06:29:54.763Z,51.80
2019-04-03T06:33:00.907Z,51.60
2019-04-03T06:36:04.598Z,51.50
2019-04-03T06:39:09.763Z,51.10
2019-04-03T06:42:14.364Z,51.30
2019-04-03T06:45:19.062Z,51.40
2019-04-03T06:48:23.424Z,51.60
2019-04-03T06:51:27.855Z,51.70
2019-04-03T06:54:32.406Z,51.70
2019-04-03T06:57:39.077Z,51.60
2019-04-03T07:00:42.757Z,51.20
2019-04-03T07:03:47.467Z,51.00
2019-04-03T07:06:55.203Z,50.70
2019-04-03T07:09:58.478Z,50.60
2019-04-03T07:13:02.883Z,50.80
2019-04-03T07:16:07.584Z,50.70
2019-04-03T07:19:12.334Z,50.50
2019-04-03T07:22:35.092Z,50.40
2019-04-03T07:25:39.307Z,50.80
2019-04-03T07:28:43.639Z,51.20
2019-04-03T07:31:48.419Z,51.50
2019-04-03T07:34:53.439Z,51.60
2019-04-03T07:37:58.087Z,51.80
2019-04-03T07:41:02.929Z,52.20
2019-04-03T07:44:07.349Z,52.10
2019-04-03T07:47:11.944Z,51.80
2019-04-03T07:50:17.245Z,52.10
2019-04-03T07:53:21.871Z,50.70
2019-04-03T07:56:26.989Z,50.20
2019-04-03T07:59:33.477Z,49.50
2019-04-03T08:02:37.681Z,49.10
2019-04-03T08:05:42.070Z,49.40
2019-04-03T08:08:46.515Z,49.60
2019-04-03T08:11:51.295Z,49.80
2019-04-03T08:14:55.782Z,49.80
2019-04-03T08:18:00.377Z,49.40
2019-04-03T08:21:04.841Z,48.90
2019-04-03T08:24:09.509Z,48.20
2019-04-03T08:27:14.049Z,47.40
2019-04-03T08:30:18.542Z,47.10
2019-04-03T08:33:26.599Z,46.60
2019-04-03T08:36:28.894Z,45.40
2019-04-03T08:39:33.906Z,45.10
2019-04-03T08:42:40.672Z,44.20
2019-04-03T08:45:45.618Z,42.90
2019-04-03T08:48:49.943Z,42.70
2019-04-03T08:51:54.699Z,42.00
2019-04-03T08:54:59.642Z,41.20
2019-04-03T08:58:04.031Z,41.00
2019-04-03T09:01:10.718Z,40.40
2019-04-03T09:04:16.752Z,39.40
2019-04-03T09:07:24.516Z,39.50
2019-04-03T09:10:31.609Z,39.70
2019-04-03T09:13:35.319Z,39.80
2019-04-03T09:16:40.097Z,39.60
2019-04-03T09:19:44.874Z,40.50
2019-04-03T09:22:49.248Z,40.20
2019-04-03T09:25:53.554Z,40.00
2019-04-03T09:28:58.150Z,40.00
2019-04-03T09:32:03.082Z,40.50
2019-04-03T09:35:08.159Z,40.00
2019-04-03T09:38:13.040Z,41.30
2019-04-03T09:41:19.208Z,41.60
2019-04-03T09:44:25.465Z,40.30
2019-04-03T09:47:29.808Z,40.00
2019-04-03T09:50:34.216Z,39.80
2019-04-03T09:53:38.802Z,39.80
2019-04-03T09:56:57.210Z,39.40
2019-04-03T09:59:49.196Z,39.00
2019-04-03T10:02:53.532Z,38.60
2019-04-03T10:05:58.192Z,38.20
2019-04-03T10:09:05.870Z,38.20
2019-04-03T10:12:11.068Z,38.10
2019-04-03T10:15:18.341Z,38.30
2019-04-03T10:18:22.921Z,38.00
2019-04-03T10:21:27.556Z,37.60
2019-04-03T10:24:32.253Z,37.40
2019-04-03T10:27:37.101Z,37.30
2019-04-03T10:30:41.880Z,37.30
2019-04-03T10:33:46.875Z,37.40
2019-04-03T10:36:51.140Z,37.60
2019-04-03T10:39:55.524Z,37.70
2019-04-03T10:43:01.023Z,37.80
2019-04-03T10:46:05.794Z,37.90
2019-04-03T10:49:10.624Z,38.00
2019-04-03T10:52:15.208Z,38.20
2019-04-03T10:55:19.620Z,38.40
2019-04-03T10:58:23.948Z,38.50
2019-04-03T11:01:28.896Z,38.60
2019-04-03T11:04:33.600Z,38.80
2019-04-03T11:07:37.999Z,38.90
2019-04-03T11:10:42.397Z,38.90
2019-04-03T11:13:46.732Z,39.10
2019-04-03T11:16:51.069Z,39.50
2019-04-03T11:19:57.423Z,39.40
2019-04-03T11:23:06.800Z,38.90
2019-04-03T11:26:08.435Z,38.70
2019-04-03T11:29:12.873Z,38.30
2019-04-03T11:32:17.192Z,39.00
2019-04-03T11:35:22.412Z,38.80
2019-04-03T11:38:29.267Z,38.70
2019-04-03T11:41:32.939Z,38.00
2019-04-03T11:44:37.540Z,38.40
2019-04-03T11:47:43.244Z,38.40
2019-04-03T11:50:47.916Z,38.20
2019-04-03T11:53:52.218Z,37.70
2019-04-03T11:56:57.179Z,38.10
2019-04-03T12:00:04.376Z,38.20
2019-04-03T12:03:10.827Z,38.20
2019-04-03T12:06:16.368Z,38.60
2019-04-03T12:09:20.851Z,38.70
2019-04-03T12:12:25.452Z,38.60
2019-04-03T12:15:30.066Z,38.80
2019-04-03T12:18:37.506Z,38.70
2019-04-03T12:21:42.335Z,38.40
2019-04-03T12:24:47.361Z,38.40
2019-04-03T12:27:51.798Z,38.20
2019-04-03T12:30:57.083Z,36.70
2019-04-03T12:34:05.433Z,37.00
2019-04-03T12:37:07.504Z,37.40
2019-04-03T12:40:12.806Z,37.90
2019-04-03T12:43:17.075Z,37.80
2019-04-03T12:46:37.335Z,37.60
2019-04-03T12:49:41.797Z,37.20
2019-04-03T12:52:47.146Z,37.10
2019-04-03T12:55:51.436Z,36.80
2019-04-03T12:58:56.444Z,37.00
2019-04-03T13:02:00.692Z,37.40
2019-04-03T13:05:07.267Z,37.80
2019-04-03T13:08:12.533Z,38.10
2019-04-03T13:11:19.119Z,37.50
2019-04-03T13:14:26.442Z,37.50
2019-04-03T13:17:30.085Z,37.10
2019-04-03T13:20:36.650Z,37.00
2019-04-03T13:23:40.968Z,37.20
2019-04-03T13:26:45.286Z,37.10
2019-04-03T13:29:51.397Z,37.20
2019-04-03T13:33:05.084Z,37.60
2019-04-03T13:36:16.915Z,37.90
2019-04-03T13:39:21.442Z,37.70
2019-04-03T13:42:25.789Z,38.30
2019-04-03T13:45:32.705Z,37.90
2019-04-03T13:48:37.699Z,37.40
2019-04-03T13:51:48.995Z,37.40
2019-04-03T13:55:02.357Z,37.50
2019-04-03T13:58:07.090Z,37.10
2019-04-03T14:01:27.654Z,37.30
2019-04-03T14:04:39.338Z,37.00
2019-04-03T14:07:46.748Z,36.30
2019-04-03T14:10:51.933Z,35.80
2019-04-03T14:13:56.598Z,36.40
2019-04-03T14:17:00.985Z,36.20
2019-04-03T14:20:13.029Z,36.50
2019-04-03T14:23:18.035Z,36.50
2019-04-03T14:26:22.482Z,36.10
2019-04-03T14:29:30.866Z,36.10
2019-04-03T14:32:38.408Z,36.90
2019-04-03T14:35:50.504Z,36.00
2019-04-03T14:38:49.109Z,35.80
2019-04-03T14:41:54.759Z,35.30
2019-04-03T14:44:59.478Z,35.40
2019-04-03T14:48:04.020Z,35.50
2019-04-03T14:51:10.928Z,35.80
2019-04-03T14:54:14.533Z,35.90
2019-04-03T14:57:22.464Z,35.70
2019-04-03T15:00:30.036Z,35.50
2019-04-03T15:03:33.525Z,35.40
2019-04-03T15:06:37.058Z,35.50
2019-04-03T15:09:41.382Z,35.80
2019-04-03T15:12:45.798Z,35.80
2019-04-03T15:15:50.116Z,35.70
2019-04-03T15:18:54.746Z,35.80
2019-04-03T15:22:01.716Z,36.20
2019-04-03T15:25:05.345Z,36.40
2019-04-03T15:28:09.664Z,36.50
2019-04-03T15:31:14.934Z,36.50
2019-04-03T15:34:19.424Z,36.70
2019-04-03T15:37:24.223Z,36.80
2019-04-03T15:40:28.572Z,36.90
2019-04-03T15:43:32.897Z,36.90
2019-04-03T15:46:37.332Z,36.90
2019-04-03T15:49:41.995Z,37.10
2019-04-03T15:52:49.293Z,37.60
2019-04-03T15:55:52.865Z,37.00
2019-04-03T15:58:58.449Z,37.00
2019-04-03T16:02:03.663Z,37.20
2019-04-03T16:05:08.449Z,36.80
2019-04-03T16:08:13.586Z,36.90
2019-04-03T16:11:18.377Z,36.90
2019-04-03T16:14:22.770Z,37.10
2019-04-03T16:17:27.070Z,37.00
2019-04-03T16:20:31.413Z,37.30
2019-04-03T16:23:36.873Z,37.20
2019-04-03T16:26:41.815Z,37.20
2019-04-03T16:29:46.931Z,37.30
2019-04-03T16:32:51.932Z,37.40
2019-04-03T16:35:56.452Z,37.50
2019-04-03T16:39:01.979Z,37.60
2019-04-03T16:42:07.282Z,37.80
2019-04-03T16:45:12.598Z,37.90
2019-04-03T16:48:18.136Z,38.00
2019-04-03T16:51:22.981Z,38.70
2019-04-03T16:54:29.099Z,38.20
2019-04-03T16:57:33.387Z,38.30
2019-04-03T17:00:38.072Z,38.50
2019-04-03T17:03:43.767Z,38.90
2019-04-03T17:06:51.164Z,39.10
2019-04-03T17:09:55.558Z,39.20
2019-04-03T17:13:00.092Z,39.40
2019-04-03T17:16:04.899Z,39.40
2019-04-03T17:19:10.661Z,39.50
2019-04-03T17:22:14.985Z,39.70
2019-04-03T17:25:19.594Z,39.90
2019-04-03T17:28:26.284Z,40.00
2019-04-03T17:31:30.167Z,40.00
2019-04-03T17:34:37.102Z,40.00
2019-04-03T17:37:40.441Z,40.10
2019-04-03T17:40:44.691Z,40.20
2019-04-03T17:43:49.010Z,40.30
2019-04-03T17:46:53.358Z,40.30
2019-04-03T17:49:59.189Z,40.50
2019-04-03T17:53:06.316Z,41.10
2019-04-03T17:56:12.390Z,41.20
2019-04-03T17:59:18.086Z,40.60
2019-04-03T18:02:22.798Z,40.60
2019-04-03T18:05:28.393Z,40.70
2019-04-03T18:08:33.196Z,40.80
2019-04-03T18:11:38.363Z,41.00
2019-04-03T18:14:42.690Z,41.10
2019-04-03T18:17:47.032Z,41.10
2019-04-03T18:20:51.337Z,41.10
2019-04-03T18:23:55.709Z,41.30
2019-04-03T18:27:02.213Z,41.40
2019-04-03T18:30:11.787Z,41.60
2019-04-03T18:33:17.057Z,41.80
2019-04-03T18:36:21.960Z,41.80
2019-04-03T18:39:27.418Z,41.90
2019-04-03T18:42:31.823Z,41.90
2019-04-03T18:45:37.944Z,42.10
2019-04-03T18:48:52.803Z,42.30
2019-04-03T18:51:48.410Z,42.50
2019-04-03T18:54:52.798Z,42.70
2019-04-03T18:57:57.191Z,42.60
2019-04-03T19:01:01.777Z,42.70
2019-04-03T19:04:07.221Z,42.80
2019-04-03T19:07:15.228Z,42.90
2019-04-03T19:10:18.838Z,43.30
2019-04-03T19:13:23.245Z,43.00
2019-04-03T19:16:29.674Z,43.10
2019-04-03T19:19:34.122Z,43.30
2019-04-03T19:22:38.528Z,43.20
2019-04-03T19:25:42.852Z,43.20
2019-04-03T19:28:48.489Z,43.30
2019-04-03T19:31:53.075Z,43.30
2019-04-03T19:34:58.022Z,43.40
2019-04-03T19:38:04.589Z,43.30
2019-04-03T19:41:11.568Z,43.40
2019-04-03T19:44:16.176Z,43.50
2019-04-03T19:47:22.831Z,43.70
2019-04-03T19:50:27.630Z,43.90
2019-04-03T19:53:35.584Z,44.00
2019-04-03T19:56:38.823Z,44.20
2019-04-03T19:59:43.183Z,44.30
2019-04-03T20:02:47.984Z,44.20
2019-04-03T20:05:54.947Z,44.50
2019-04-03T20:08:59.022Z,44.30
2019-04-03T20:12:06.821Z,44.60
2019-04-03T20:15:12.601Z,44.60
2019-04-03T20:18:16.982Z,44.60
2019-04-03T20:21:21.696Z,44.60
2019-04-03T20:24:26.115Z,44.70
2019-04-03T20:27:30.523Z,44.70
2019-04-03T20:30:35.103Z,44.60
2019-04-03T20:33:42.147Z,44.60
2019-04-03T20:36:45.920Z,44.60
2019-04-03T20:39:50.647Z,44.60
2019-04-03T20:42:54.961Z,44.60
2019-04-03T20:46:00.690Z,44.40
2019-04-03T20:49:05.009Z,44.60
2019-04-03T20:52:11.537Z,44.50
2019-04-03T20:55:15.742Z,44.50
2019-04-03T20:58:20.065Z,44.60
2019-04-03T21:01:24.391Z,44.70
2019-04-03T21:04:28.838Z,44.70
2019-04-03T21:07:33.967Z,44.80
2019-04-03T21:10:38.695Z,44.90
2019-04-03T21:13:43.678Z,44.70
2019-04-03T21:16:48.464Z,44.90
2019-04-03T21:19:53.309Z,45.00
2019-04-03T21:23:02.926Z,45.10
2019-04-03T21:26:07.484Z,45.10
2019-04-03T21:29:12.972Z,45.20
2019-04-03T21:32:17.692Z,45.20
2019-04-03T21:35:22.031Z,45.10
2019-04-03T21:38:26.699Z,45.20
2019-04-03T21:41:31.466Z,45.20
2019-04-03T21:44:37.472Z,45.10
2019-04-03T21:47:42.735Z,45.40
2019-04-03T21:50:47.912Z,46.20
2019-04-03T21:53:55.831Z,45.70
2019-04-03T21:56:59.725Z,45.90
2019-04-03T22:00:06.215Z,45.70
2019-04-03T22:03:11.537Z,45.60
2019-04-03T22:06:16.032Z,45.90
2019-04-03T22:09:20.433Z,45.80
2019-04-03T22:12:25.092Z,45.90
2019-04-03T22:15:29.409Z,45.80
2019-04-03T22:18:34.837Z,46.00
2019-04-03T22:21:39.566Z,46.20
2019-04-03T22:24:46.027Z,46.50
2019-04-03T22:27:50.731Z,46.20
2019-04-03T22:30:55.077Z,46.70
2019-04-03T22:33:59.811Z,46.70
2019-04-03T22:37:04.626Z,46.60
2019-04-03T22:40:10.704Z,46.70
2019-04-03T22:43:16.204Z,46.80
2019-04-03T22:46:22.100Z,47.00
2019-04-03T22:49:27.005Z,47.00
2019-04-03T22:52:31.412Z,47.10
2019-04-03T22:55:35.740Z,47.30
2019-04-03T22:58:40.732Z,47.20
2019-04-03T23:01:45.094Z,47.00
2019-04-03T23:04:49.511Z,47.00
2019-04-03T23:07:53.889Z,47.10
2019-04-03T23:11:01.318Z,47.40
2019-04-03T23:14:07.448Z,47.80
2019-04-03T23:17:13.769Z,47.20
2019-04-03T23:20:20.073Z,47.20
2019-04-03T23:23:27.581Z,47.20
2019-04-03T23:26:32.263Z,47.40
2019-04-03T23:29:37.249Z,47.40
2019-04-03T23:32:41.577Z,47.30
2019-04-03T23:35:47.141Z,47.30
2019-04-03T23:38:52.161Z,47.30
2019-04-03T23:41:56.540Z,47.20
2019-04-03T23:45:00.926Z,47.10
2019-04-03T23:48:05.177Z,47.10
2019-04-03T23:51:10.722Z,47.20
2019-04-03T23:54:15.639Z,47.20
2019-04-03T23:57:20.268Z,47.20
